sensor_id;sensor_type;location;lat;lon;timestamp;pressure;altitude;pressure_sealevel;temperature;humidity
41632;BME280;37452;51.938;4.624;2022-07-30T00:00:13;77009.28;;;-142.75;100.00
41632;BME280;37452;51.938;4.624;2022-07-30T00:02:40;77011.25;;;-142.75;100.00
41632;BME280;37452;51.938;4.624;2022-07-30T00:05:06;77011.25;;;-142.75;100.00
41632;BME280;37452;51.938;4.624;2022-07-30T00:07:31;77007.31;;;-142.75;100.00
41632;BME280;37452;51.938;4.624;2022-07-30T00:09:56;77015.19;;;-142.75;100.00
41632;BME280;37452;51.938;4.624;2022-07-30T00:12:21;77023.06;;;-142.75;100.00
41632;BME280;37452;51.938;4.624;2022-07-30T00:14:47;77027.00;;;-142.75;100.00
41632;BME280;37452;51.938;4.624;2022-07-30T00:17:12;77027.00;;;-142.75;100.00
41632;BME280;37452;51.938;4.624;2022-07-30T00:19:37;77027.00;;;-142.75;100.00
41632;BME280;37452;51.938;4.624;2022-07-30T00:22:02;77028.97;;;-142.75;100.00
41632;BME280;37452;51.938;4.624;2022-07-30T00:24:27;77025.03;;;-142.75;100.00
41632;BME280;37452;51.938;4.624;2022-07-30T00:26:53;77027.00;;;-142.75;100.00
41632;BME280;37452;51.938;4.624;2022-07-30T00:29:18;77034.88;;;-142.75;100.00
41632;BME280;37452;51.938;4.624;2022-07-30T00:31:43;77030.94;;;-142.75;100.00
41632;BME280;37452;51.938;4.624;2022-07-30T00:34:08;77030.94;;;-142.75;100.00
41632;BME280;37452;51.938;4.624;2022-07-30T00:36:34;77027.00;;;-142.75;100.00
41632;BME280;37452;51.938;4.624;2022-07-30T00:38:59;77027.00;;;-142.75;100.00
41632;BME280;37452;51.938;4.624;2022-07-30T00:41:25;77025.03;;;-142.75;100.00
41632;BME280;37452;51.938;4.624;2022-07-30T00:43:50;77021.09;;;-142.75;100.00
41632;BME280;37452;51.938;4.624;2022-07-30T00:46:15;77015.19;;;-142.75;100.00
41632;BME280;37452;51.938;4.624;2022-07-30T00:48:41;77015.19;;;-142.75;100.00
41632;BME280;37452;51.938;4.624;2022-07-30T00:51:06;77027.00;;;-142.75;100.00
41632;BME280;37452;51.938;4.624;2022-07-30T00:53:32;77028.97;;;-142.75;100.00
41632;BME280;37452;51.938;4.624;2022-07-30T00:55:57;77030.94;;;-142.75;100.00
41632;BME280;37452;51.938;4.624;2022-07-30T00:58:22;77032.91;;;-142.75;100.00
41632;BME280;37452;51.938;4.624;2022-07-30T01:00:47;77030.94;;;-142.75;100.00
41632;BME280;37452;51.938;4.624;2022-07-30T01:03:13;77038.81;;;-142.75;100.00
41632;BME280;37452;51.938;4.624;2022-07-30T01:05:38;77044.72;;;-142.75;100.00
41632;BME280;37452;51.938;4.624;2022-07-30T01:08:03;77052.59;;;-142.75;100.00
41632;BME280;37452;51.938;4.624;2022-07-30T01:10:28;77056.53;;;-142.75;100.00
41632;BME280;37452;51.938;4.624;2022-07-30T01:12:54;77058.50;;;-142.75;100.00
41632;BME280;37452;51.938;4.624;2022-07-30T01:15:19;77062.44;;;-142.75;100.00
41632;BME280;37452;51.938;4.624;2022-07-30T01:17:45;77062.44;;;-142.75;100.00
41632;BME280;37452;51.938;4.624;2022-07-30T01:20:15;77066.38;;;-142.75;100.00
41632;BME280;37452;51.938;4.624;2022-07-30T01:22:43;77066.38;;;-142.75;100.00
41632;BME280;37452;51.938;4.624;2022-07-30T01:25:22;77076.22;;;-142.75;100.00
41632;BME280;37452;51.938;4.624;2022-07-30T01:27:58;77078.19;;;-142.75;100.00
41632;BME280;37452;51.938;4.624;2022-07-30T01:30:26;77080.16;;;-142.75;100.00
41632;BME280;37452;51.938;4.624;2022-07-30T01:32:52;77070.31;;;-142.75;100.00
41632;BME280;37452;51.938;4.624;2022-07-30T01:35:18;77070.31;;;-142.75;100.00
41632;BME280;37452;51.938;4.624;2022-07-30T01:37:45;77070.31;;;-142.75;100.00
41632;BME280;37452;51.938;4.624;2022-07-30T01:40:10;77074.25;;;-142.75;100.00
41632;BME280;37452;51.938;4.624;2022-07-30T01:42:36;77090.00;;;-142.75;100.00
41632;BME280;37452;51.938;4.624;2022-07-30T01:45:02;77103.78;;;-142.75;100.00
41632;BME280;37452;51.938;4.624;2022-07-30T01:47:28;77115.59;;;-142.75;100.00
41632;BME280;37452;51.938;4.624;2022-07-30T01:49:56;77119.53;;;-142.75;100.00
41632;BME280;37452;51.938;4.624;2022-07-30T01:52:23;77127.41;;;-142.75;100.00
41632;BME280;37452;51.938;4.624;2022-07-30T01:54:50;77133.31;;;-142.75;100.00
41632;BME280;37452;51.938;4.624;2022-07-30T01:57:17;77129.38;;;-142.75;100.00
41632;BME280;37452;51.938;4.624;2022-07-30T01:59:44;77129.38;;;-142.75;100.00
41632;BME280;37452;51.938;4.624;2022-07-30T02:02:11;77131.34;;;-142.75;100.00
41632;BME280;37452;51.938;4.624;2022-07-30T02:04:36;77131.34;;;-142.75;100.00
41632;BME280;37452;51.938;4.624;2022-07-30T02:07:03;77133.31;;;-142.75;100.00
41632;BME280;37452;51.938;4.624;2022-07-30T02:09:33;77135.28;;;-142.75;100.00
41632;BME280;37452;51.938;4.624;2022-07-30T02:11:59;77133.31;;;-142.75;100.00
41632;BME280;37452;51.938;4.624;2022-07-30T02:17:09;77135.28;;;-142.75;100.00
41632;BME280;37452;51.938;4.624;2022-07-30T02:19:38;77139.22;;;-142.75;100.00
41632;BME280;37452;51.938;4.624;2022-07-30T02:22:08;77145.13;;;-142.75;100.00
41632;BME280;37452;51.938;4.624;2022-07-30T02:24:35;77139.22;;;-142.75;100.00
41632;BME280;37452;51.938;4.624;2022-07-30T02:27:02;77141.19;;;-142.75;100.00
41632;BME280;37452;51.938;4.624;2022-07-30T02:29:29;77145.13;;;-142.75;100.00
41632;BME280;37452;51.938;4.624;2022-07-30T02:31:56;77147.09;;;-142.75;100.00
41632;BME280;37452;51.938;4.624;2022-07-30T02:34:21;77149.06;;;-142.75;100.00
41632;BME280;37452;51.938;4.624;2022-07-30T02:36:48;77151.03;;;-142.75;100.00
41632;BME280;37452;51.938;4.624;2022-07-30T02:39:13;77156.94;;;-142.75;100.00
41632;BME280;37452;51.938;4.624;2022-07-30T02:41:40;77153.00;;;-142.75;100.00
41632;BME280;37452;51.938;4.624;2022-07-30T02:44:07;77149.06;;;-142.75;100.00
41632;BME280;37452;51.938;4.624;2022-07-30T02:46:34;77145.13;;;-142.75;100.00
41632;BME280;37452;51.938;4.624;2022-07-30T02:49:00;77141.19;;;-142.75;100.00
41632;BME280;37452;51.938;4.624;2022-07-30T02:51:26;77145.13;;;-142.75;100.00
41632;BME280;37452;51.938;4.624;2022-07-30T02:53:52;77139.22;;;-142.75;100.00
41632;BME280;37452;51.938;4.624;2022-07-30T02:56:18;77141.19;;;-142.75;100.00
41632;BME280;37452;51.938;4.624;2022-07-30T02:58:46;77145.13;;;-142.75;100.00
41632;BME280;37452;51.938;4.624;2022-07-30T03:01:13;77149.06;;;-142.75;100.00
41632;BME280;37452;51.938;4.624;2022-07-30T03:03:41;77154.97;;;-142.75;100.00
41632;BME280;37452;51.938;4.624;2022-07-30T03:06:07;77158.91;;;-142.75;100.00
41632;BME280;37452;51.938;4.624;2022-07-30T03:08:33;77168.75;;;-142.75;100.00
41632;BME280;37452;51.938;4.624;2022-07-30T03:10:58;77174.66;;;-142.75;100.00
41632;BME280;37452;51.938;4.624;2022-07-30T03:13:24;77174.66;;;-142.75;100.00
41632;BME280;37452;51.938;4.624;2022-07-30T03:15:49;77178.59;;;-142.75;100.00
41632;BME280;37452;51.938;4.624;2022-07-30T03:18:16;77178.59;;;-142.75;100.00
41632;BME280;37452;51.938;4.624;2022-07-30T03:20:43;77182.53;;;-142.75;100.00
41632;BME280;37452;51.938;4.624;2022-07-30T03:23:10;77186.47;;;-142.75;100.00
41632;BME280;37452;51.938;4.624;2022-07-30T03:25:36;77184.50;;;-142.75;100.00
41632;BME280;37452;51.938;4.624;2022-07-30T03:28:03;77184.50;;;-142.75;100.00
41632;BME280;37452;51.938;4.624;2022-07-30T03:30:29;77186.47;;;-142.75;100.00
41632;BME280;37452;51.938;4.624;2022-07-30T03:32:55;77184.50;;;-142.75;100.00
41632;BME280;37452;51.938;4.624;2022-07-30T03:35:21;77190.41;;;-142.75;100.00
41632;BME280;37452;51.938;4.624;2022-07-30T03:37:49;77196.31;;;-142.75;100.00
41632;BME280;37452;51.938;4.624;2022-07-30T03:40:15;77194.34;;;-142.75;100.00
41632;BME280;37452;51.938;4.624;2022-07-30T03:42:40;77194.34;;;-142.75;100.00
41632;BME280;37452;51.938;4.624;2022-07-30T03:45:06;77196.31;;;-142.75;100.00
41632;BME280;37452;51.938;4.624;2022-07-30T03:47:33;77196.31;;;-142.75;100.00
41632;BME280;37452;51.938;4.624;2022-07-30T03:50:00;77196.31;;;-142.75;100.00
41632;BME280;37452;51.938;4.624;2022-07-30T03:52:26;77208.13;;;-142.75;100.00
41632;BME280;37452;51.938;4.624;2022-07-30T03:54:51;77210.09;;;-142.75;100.00
41632;BME280;37452;51.938;4.624;2022-07-30T03:57:17;77216.00;;;-142.75;100.00
41632;BME280;37452;51.938;4.624;2022-07-30T03:59:42;77216.00;;;-142.75;100.00
41632;BME280;37452;51.938;4.624;2022-07-30T04:02:07;77212.06;;;-142.75;100.00
41632;BME280;37452;51.938;4.624;2022-07-30T04:04:32;77204.19;;;-142.75;100.00
41632;BME280;37452;51.938;4.624;2022-07-30T04:06:58;77202.22;;;-142.75;100.00
41632;BME280;37452;51.938;4.624;2022-07-30T04:09:23;77196.31;;;-142.75;100.00
41632;BME280;37452;51.938;4.624;2022-07-30T04:11:49;77190.41;;;-142.75;100.00
41632;BME280;37452;51.938;4.624;2022-07-30T04:14:14;77192.38;;;-142.75;100.00
41632;BME280;37452;51.938;4.624;2022-07-30T04:16:46;77188.44;;;-142.75;100.00
41632;BME280;37452;51.938;4.624;2022-07-30T04:19:14;77182.53;;;-142.75;100.00
41632;BME280;37452;51.938;4.624;2022-07-30T04:21:40;77180.56;;;-142.75;100.00
41632;BME280;37452;51.938;4.624;2022-07-30T04:24:06;77172.69;;;-142.75;100.00
41632;BME280;37452;51.938;4.624;2022-07-30T04:26:33;77176.63;;;-142.75;100.00
41632;BME280;37452;51.938;4.624;2022-07-30T04:28:59;77176.63;;;-142.75;100.00
41632;BME280;37452;51.938;4.624;2022-07-30T04:31:25;77172.69;;;-142.75;100.00
41632;BME280;37452;51.938;4.624;2022-07-30T04:33:51;77172.69;;;-142.75;100.00
41632;BME280;37452;51.938;4.624;2022-07-30T04:36:17;77176.63;;;-142.75;100.00
41632;BME280;37452;51.938;4.624;2022-07-30T04:38:42;77176.63;;;-142.75;100.00
41632;BME280;37452;51.938;4.624;2022-07-30T04:41:07;77176.63;;;-142.75;100.00
41632;BME280;37452;51.938;4.624;2022-07-30T04:43:33;77170.72;;;-142.75;100.00
41632;BME280;37452;51.938;4.624;2022-07-30T04:45:58;77174.66;;;-142.75;100.00
41632;BME280;37452;51.938;4.624;2022-07-30T04:48:23;77164.81;;;-142.75;100.00
41632;BME280;37452;51.938;4.624;2022-07-30T04:50:50;77164.81;;;-142.75;100.00
41632;BME280;37452;51.938;4.624;2022-07-30T04:53:17;77154.97;;;-142.75;100.00
41632;BME280;37452;51.938;4.624;2022-07-30T04:55:44;77145.13;;;-142.75;100.00
41632;BME280;37452;51.938;4.624;2022-07-30T04:58:11;77137.25;;;-142.75;100.00
41632;BME280;37452;51.938;4.624;2022-07-30T05:00:37;77133.31;;;-142.75;100.00
41632;BME280;37452;51.938;4.624;2022-07-30T05:03:03;77129.38;;;-142.75;100.00
41632;BME280;37452;51.938;4.624;2022-07-30T05:05:29;77125.44;;;-142.75;100.00
41632;BME280;37452;51.938;4.624;2022-07-30T05:07:56;77117.56;;;-142.75;100.00
41632;BME280;37452;51.938;4.624;2022-07-30T05:10:22;77103.78;;;-142.75;100.00
41632;BME280;37452;51.938;4.624;2022-07-30T05:12:48;77088.03;;;-142.75;100.00
41632;BME280;37452;51.938;4.624;2022-07-30T05:15:13;77080.16;;;-142.75;100.00
41632;BME280;37452;51.938;4.624;2022-07-30T05:17:38;77068.34;;;-142.75;100.00
41632;BME280;37452;51.938;4.624;2022-07-30T05:20:04;77058.50;;;-142.75;100.00
41632;BME280;37452;51.938;4.624;2022-07-30T05:22:29;77050.63;;;-142.75;100.00
41632;BME280;37452;51.938;4.624;2022-07-30T05:24:55;77040.78;;;-142.75;100.00
41632;BME280;37452;51.938;4.624;2022-07-30T05:27:20;77030.94;;;-142.75;100.00
41632;BME280;37452;51.938;4.624;2022-07-30T05:29:45;77025.03;;;-142.75;100.00
41632;BME280;37452;51.938;4.624;2022-07-30T05:32:11;77011.25;;;-142.75;100.00
41632;BME280;37452;51.938;4.624;2022-07-30T05:34:36;76997.47;;;-142.75;100.00
41632;BME280;37452;51.938;4.624;2022-07-30T05:37:01;76987.63;;;-142.75;100.00
41632;BME280;37452;51.938;4.624;2022-07-30T05:39:26;76977.78;;;-142.75;100.00
41632;BME280;37452;51.938;4.624;2022-07-30T05:41:52;76967.94;;;-142.75;100.00
41632;BME280;37452;51.938;4.624;2022-07-30T05:44:18;76956.13;;;-142.75;100.00
41632;BME280;37452;51.938;4.624;2022-07-30T05:46:43;76946.28;;;-142.75;100.00
41632;BME280;37452;51.938;4.624;2022-07-30T05:49:08;76932.50;;;-142.75;100.00
41632;BME280;37452;51.938;4.624;2022-07-30T05:51:33;76926.59;;;-142.75;100.00
41632;BME280;37452;51.938;4.624;2022-07-30T05:53:58;76904.94;;;-142.75;100.00
41632;BME280;37452;51.938;4.624;2022-07-30T05:56:24;76893.13;;;-142.75;100.00
41632;BME280;37452;51.938;4.624;2022-07-30T05:58:49;76877.38;;;-142.75;100.00
41632;BME280;37452;51.938;4.624;2022-07-30T06:01:14;76867.53;;;-142.75;100.00
41632;BME280;37452;51.938;4.624;2022-07-30T06:03:39;76857.69;;;-142.75;100.00
41632;BME280;37452;51.938;4.624;2022-07-30T06:06:05;76838.00;;;-142.75;100.00
41632;BME280;37452;51.938;4.624;2022-07-30T06:08:31;76820.28;;;-142.75;100.00
41632;BME280;37452;51.938;4.624;2022-07-30T06:10:56;76802.56;;;-142.75;100.00
41632;BME280;37452;51.938;4.624;2022-07-30T06:13:21;76794.69;;;-142.75;100.00
41632;BME280;37452;51.938;4.624;2022-07-30T06:15:46;76777.00;;;-142.75;100.00
41632;BME280;37452;51.938;4.624;2022-07-30T06:18:11;76759.28;;;-142.75;100.00
41632;BME280;37452;51.938;4.624;2022-07-30T06:20:37;76755.34;;;-142.75;100.00
41632;BME280;37452;51.938;4.624;2022-07-30T06:23:02;76741.56;;;-142.75;100.00
41632;BME280;37452;51.938;4.624;2022-07-30T06:25:27;76733.69;;;-142.75;100.00
41632;BME280;37452;51.938;4.624;2022-07-30T06:27:52;76715.97;;;-142.75;100.00
41632;BME280;37452;51.938;4.624;2022-07-30T06:30:17;76704.16;;;-142.75;100.00
41632;BME280;37452;51.938;4.624;2022-07-30T06:32:43;76688.41;;;-142.75;100.00
41632;BME280;37452;51.938;4.624;2022-07-30T06:35:09;76672.66;;;-142.75;100.00
41632;BME280;37452;51.938;4.624;2022-07-30T06:37:34;76664.78;;;-142.75;100.00
41632;BME280;37452;51.938;4.624;2022-07-30T06:40:00;76654.94;;;-142.75;100.00
41632;BME280;37452;51.938;4.624;2022-07-30T06:42:25;76631.31;;;-142.75;100.00
41632;BME280;37452;51.938;4.624;2022-07-30T06:44:50;76629.34;;;-142.75;100.00
41632;BME280;37452;51.938;4.624;2022-07-30T06:47:19;76613.59;;;-142.75;100.00
41632;BME280;37452;51.938;4.624;2022-07-30T06:49:49;76593.91;;;-142.75;100.00
41632;BME280;37452;51.938;4.624;2022-07-30T06:52:15;76582.09;;;-142.75;100.00
41632;BME280;37452;51.938;4.624;2022-07-30T06:54:40;76564.38;;;-142.75;100.00
41632;BME280;37452;51.938;4.624;2022-07-30T06:57:05;76542.72;;;-142.75;100.00
41632;BME280;37452;51.938;4.624;2022-07-30T06:59:30;76525.03;;;-142.75;100.00
41632;BME280;37452;51.938;4.624;2022-07-30T07:01:56;76501.41;;;-142.75;100.00
41632;BME280;37452;51.938;4.624;2022-07-30T07:04:21;76479.75;;;-142.75;100.00
41632;BME280;37452;51.938;4.624;2022-07-30T07:06:46;76452.19;;;-142.75;100.00
41632;BME280;37452;51.938;4.624;2022-07-30T07:09:12;76440.38;;;-142.75;100.00
41632;BME280;37452;51.938;4.624;2022-07-30T07:11:37;76424.63;;;-142.75;100.00
41632;BME280;37452;51.938;4.624;2022-07-30T07:14:02;76416.75;;;-142.75;100.00
41632;BME280;37452;51.938;4.624;2022-07-30T07:16:27;76408.88;;;-142.75;100.00
41632;BME280;37452;51.938;4.624;2022-07-30T07:18:53;76397.06;;;-142.75;100.00
41632;BME280;37452;51.938;4.624;2022-07-30T07:21:18;76393.13;;;-142.75;100.00
41632;BME280;37452;51.938;4.624;2022-07-30T07:23:44;76397.06;;;-142.75;100.00
41632;BME280;37452;51.938;4.624;2022-07-30T07:26:10;76383.28;;;-142.75;100.00
41632;BME280;37452;51.938;4.624;2022-07-30T07:28:35;76381.31;;;-142.75;100.00
41632;BME280;37452;51.938;4.624;2022-07-30T07:31:00;76385.25;;;-142.75;100.00
41632;BME280;37452;51.938;4.624;2022-07-30T07:33:26;76365.56;;;-142.75;100.00
41632;BME280;37452;51.938;4.624;2022-07-30T07:35:51;76351.81;;;-142.75;100.00
41632;BME280;37452;51.938;4.624;2022-07-30T07:38:18;76355.72;;;-142.75;100.00
41632;BME280;37452;51.938;4.624;2022-07-30T07:40:44;76330.16;;;-142.75;100.00
41632;BME280;37452;51.938;4.624;2022-07-30T07:43:09;76304.56;;;-142.75;100.00
41632;BME280;37452;51.938;4.624;2022-07-30T07:45:35;76302.59;;;-142.75;100.00
41632;BME280;37452;51.938;4.624;2022-07-30T07:48:00;76290.78;;;-142.75;100.00
41632;BME280;37452;51.938;4.624;2022-07-30T07:50:25;76257.31;;;-142.75;100.00
41632;BME280;37452;51.938;4.624;2022-07-30T07:52:50;76253.38;;;-142.75;100.00
41632;BME280;37452;51.938;4.624;2022-07-30T07:55:16;76259.28;;;-142.75;100.00
41632;BME280;37452;51.938;4.624;2022-07-30T07:57:42;76251.41;;;-142.75;100.00
41632;BME280;37452;51.938;4.624;2022-07-30T08:00:08;76227.78;;;-142.75;100.00
41632;BME280;37452;51.938;4.624;2022-07-30T08:02:34;76219.91;;;-142.75;100.00
41632;BME280;37452;51.938;4.624;2022-07-30T08:04:59;76223.84;;;-142.75;100.00
41632;BME280;37452;51.938;4.624;2022-07-30T08:07:25;76200.25;;;-142.75;100.00
41632;BME280;37452;51.938;4.624;2022-07-30T08:09:50;76166.78;;;-142.75;100.00
41632;BME280;37452;51.938;4.624;2022-07-30T08:12:15;76160.88;;;-142.75;100.00
41632;BME280;37452;51.938;4.624;2022-07-30T08:14:40;76137.25;;;-142.75;100.00
41632;BME280;37452;51.938;4.624;2022-07-30T08:17:05;76113.63;;;-142.75;100.00
41632;BME280;37452;51.938;4.624;2022-07-30T08:19:31;76097.88;;;-142.75;100.00
41632;BME280;37452;51.938;4.624;2022-07-30T08:21:56;76072.31;;;-142.75;100.00
41632;BME280;37452;51.938;4.624;2022-07-30T08:24:23;76086.06;;;-142.75;98.63
41632;BME280;37452;51.938;4.624;2022-07-30T08:26:48;76076.22;;;-142.75;100.00
41632;BME280;37452;51.938;4.624;2022-07-30T08:29:13;76054.59;;;-142.75;100.00
41632;BME280;37452;51.938;4.624;2022-07-30T08:31:39;76027.03;;;-142.75;100.00
41632;BME280;37452;51.938;4.624;2022-07-30T08:34:04;76023.09;;;-142.75;91.21
41632;BME280;37452;51.938;4.624;2022-07-30T08:36:29;76005.38;;;-142.75;97.39
41632;BME280;37452;51.938;4.624;2022-07-30T08:38:54;75977.81;;;-142.75;100.00
41632;BME280;37452;51.938;4.624;2022-07-30T08:41:19;75960.13;;;-142.75;93.67
41632;BME280;37452;51.938;4.624;2022-07-30T08:43:45;75940.44;;;-142.75;90.41
41632;BME280;37452;51.938;4.624;2022-07-30T08:46:11;75938.47;;;-142.75;88.33
41632;BME280;37452;51.938;4.624;2022-07-30T08:48:38;75908.94;;;-142.75;90.48
41632;BME280;37452;51.938;4.624;2022-07-30T08:51:04;75918.78;;;-142.75;85.56
41632;BME280;37452;51.938;4.624;2022-07-30T08:53:30;75905.00;;;-142.75;84.29
41632;BME280;37452;51.938;4.624;2022-07-30T08:55:56;75893.19;;;-142.75;83.49
41632;BME280;37452;51.938;4.624;2022-07-30T08:58:28;75875.47;;;-142.75;86.85
41632;BME280;37452;51.938;4.624;2022-07-30T09:00:54;75853.84;;;-142.75;86.03
41632;BME280;37452;51.938;4.624;2022-07-30T09:03:19;75861.69;;;-142.75;81.20
41632;BME280;37452;51.938;4.624;2022-07-30T09:05:45;75857.78;;;-142.75;84.17
41632;BME280;37452;51.938;4.624;2022-07-30T09:08:10;75849.91;;;-142.75;82.84
41632;BME280;37452;51.938;4.624;2022-07-30T09:10:35;75836.13;;;-142.75;83.97
41632;BME280;37452;51.938;4.624;2022-07-30T09:13:00;75818.41;;;-142.75;82.96
41632;BME280;37452;51.938;4.624;2022-07-30T09:15:26;75840.06;;;-142.75;80.35
41632;BME280;37452;51.938;4.624;2022-07-30T09:17:59;75822.34;;;-142.75;78.65
41632;BME280;37452;51.938;4.624;2022-07-30T09:20:27;75796.75;;;-142.75;80.63
41632;BME280;37452;51.938;4.624;2022-07-30T09:22:53;75782.97;;;-142.75;79.32
41632;BME280;37452;51.938;4.624;2022-07-30T09:25:35;75753.47;;;-142.75;79.09
41632;BME280;37452;51.938;4.624;2022-07-30T09:28:01;75751.50;;;-142.75;72.63
41632;BME280;37452;51.938;4.624;2022-07-30T09:30:27;75735.75;;;-142.75;75.51
41632;BME280;37452;51.938;4.624;2022-07-30T09:33:06;75723.94;;;-142.75;78.72
41632;BME280;37452;51.938;4.624;2022-07-30T09:35:31;75692.44;;;-142.75;76.22
41632;BME280;37452;51.938;4.624;2022-07-30T09:37:57;75686.53;;;-142.75;72.02
41632;BME280;37452;51.938;4.624;2022-07-30T09:40:22;75684.56;;;-142.75;72.61
41632;BME280;37452;51.938;4.624;2022-07-30T09:42:47;75682.59;;;-142.75;71.60
41632;BME280;37452;51.938;4.624;2022-07-30T09:45:24;75660.97;;;-142.75;73.33
41632;BME280;37452;51.938;4.624;2022-07-30T09:47:50;75647.19;;;-142.75;68.80
41632;BME280;37452;51.938;4.624;2022-07-30T09:50:15;75629.47;;;-142.75;68.49
41632;BME280;37452;51.938;4.624;2022-07-30T09:52:42;75631.44;;;-142.75;69.96
41632;BME280;37452;51.938;4.624;2022-07-30T09:55:08;75621.59;;;-142.75;69.13
41632;BME280;37452;51.938;4.624;2022-07-30T09:57:33;75605.84;;;-142.75;70.88
41632;BME280;37452;51.938;4.624;2022-07-30T10:00:15;75615.69;;;-142.75;66.12
41632;BME280;37452;51.938;4.624;2022-07-30T10:02:41;75645.22;;;-142.75;67.16
41632;BME280;37452;51.938;4.624;2022-07-30T10:05:10;75613.72;;;-142.75;70.40
41632;BME280;37452;51.938;4.624;2022-07-30T10:07:35;75592.09;;;-142.75;67.16
41632;BME280;37452;51.938;4.624;2022-07-30T10:10:00;75594.06;;;-142.75;66.36
41632;BME280;37452;51.938;4.624;2022-07-30T10:12:26;75590.13;;;-142.75;66.28
41632;BME280;37452;51.938;4.624;2022-07-30T10:14:52;75605.84;;;-142.75;66.48
41632;BME280;37452;51.938;4.624;2022-07-30T10:17:19;75584.22;;;-142.75;68.37
41632;BME280;37452;51.938;4.624;2022-07-30T10:19:46;75572.41;;;-142.75;65.08
41632;BME280;37452;51.938;4.624;2022-07-30T10:22:12;75550.75;;;-142.75;67.48
41632;BME280;37452;51.938;4.624;2022-07-30T10:24:37;75533.03;;;-142.75;65.77
41632;BME280;37452;51.938;4.624;2022-07-30T10:27:04;75523.19;;;-142.75;65.60
41632;BME280;37452;51.938;4.624;2022-07-30T10:29:32;75513.38;;;-142.75;65.21
41632;BME280;37452;51.938;4.624;2022-07-30T10:31:59;75509.44;;;-142.75;65.60
41632;BME280;37452;51.938;4.624;2022-07-30T10:34:24;75495.66;;;-142.75;62.91
41632;BME280;37452;51.938;4.624;2022-07-30T10:36:51;75511.41;;;-142.75;63.20
41632;BME280;37452;51.938;4.624;2022-07-30T10:39:24;75513.38;;;-142.75;65.51
41632;BME280;37452;51.938;4.624;2022-07-30T10:44:28;75499.59;;;-142.75;65.59
41632;BME280;37452;51.938;4.624;2022-07-30T10:47:01;75517.28;;;-142.75;65.94
41632;BME280;37452;51.938;4.624;2022-07-30T10:49:27;75525.16;;;-142.75;66.39
41632;BME280;37452;51.938;4.624;2022-07-30T10:51:53;75535.00;;;-142.75;67.10
41632;BME280;37452;51.938;4.624;2022-07-30T10:57:04;75582.25;;;-142.75;68.09
41632;BME280;37452;51.938;4.624;2022-07-30T10:59:52;75594.06;;;-142.75;67.69
41632;BME280;37452;51.938;4.624;2022-07-30T11:02:15;75619.63;;;-142.75;69.66
41632;BME280;37452;51.938;4.624;2022-07-30T11:04:41;75633.41;;;-142.75;71.90
41632;BME280;37452;51.938;4.624;2022-07-30T11:09:52;75615.69;;;-142.75;69.47
41632;BME280;37452;51.938;4.624;2022-07-30T11:15:01;75666.88;;;-142.75;68.39
41632;BME280;37452;51.938;4.624;2022-07-30T11:17:27;75688.50;;;-142.75;69.00
41632;BME280;37452;51.938;4.624;2022-07-30T11:20:12;75710.16;;;-142.75;71.24
41632;BME280;37452;51.938;4.624;2022-07-30T11:22:38;75731.81;;;-142.75;71.86
41632;BME280;37452;51.938;4.624;2022-07-30T11:25:09;75769.19;;;-142.75;72.88
41632;BME280;37452;51.938;4.624;2022-07-30T11:27:53;75755.44;;;-142.75;74.70
41632;BME280;37452;51.938;4.624;2022-07-30T11:32:45;75784.94;;;-142.75;76.52
41632;BME280;37452;51.938;4.624;2022-07-30T11:37:54;75796.75;;;-142.75;76.25
41632;BME280;37452;51.938;4.624;2022-07-30T11:40:21;75798.72;;;-142.75;81.05
41632;BME280;37452;51.938;4.624;2022-07-30T11:42:47;75806.59;;;-142.75;74.76
41632;BME280;37452;51.938;4.624;2022-07-30T11:47:56;75812.50;;;-142.75;77.33
41632;BME280;37452;51.938;4.624;2022-07-30T11:50:32;75788.88;;;-142.75;82.42
41632;BME280;37452;51.938;4.624;2022-07-30T11:57:51;75739.69;;;-142.75;76.64
41632;BME280;37452;51.938;4.624;2022-07-30T12:00:17;75720.00;;;-142.75;77.82
41632;BME280;37452;51.938;4.624;2022-07-30T12:02:43;75708.19;;;-142.75;73.59
41632;BME280;37452;51.938;4.624;2022-07-30T12:05:08;75704.25;;;-142.75;73.38
41632;BME280;37452;51.938;4.624;2022-07-30T12:07:33;75696.38;;;-142.75;74.32
41632;BME280;37452;51.938;4.624;2022-07-30T12:10:11;75688.50;;;-142.75;73.20
41632;BME280;37452;51.938;4.624;2022-07-30T12:12:37;75668.84;;;-142.75;74.26
41632;BME280;37452;51.938;4.624;2022-07-30T12:15:02;75660.97;;;-142.75;72.55
41632;BME280;37452;51.938;4.624;2022-07-30T12:17:44;75645.22;;;-142.75;71.80
41632;BME280;37452;51.938;4.624;2022-07-30T12:20:16;75637.34;;;-142.75;71.75
41632;BME280;37452;51.938;4.624;2022-07-30T12:22:41;75623.56;;;-142.75;72.18
41632;BME280;37452;51.938;4.624;2022-07-30T12:25:07;75625.53;;;-142.75;72.64
41632;BME280;37452;51.938;4.624;2022-07-30T12:27:32;75621.59;;;-142.75;73.22
41632;BME280;37452;51.938;4.624;2022-07-30T12:29:58;75625.53;;;-142.75;74.85
41632;BME280;37452;51.938;4.624;2022-07-30T12:32:23;75625.53;;;-142.75;77.01
41632;BME280;37452;51.938;4.624;2022-07-30T12:34:54;75627.50;;;-142.75;75.68
41632;BME280;37452;51.938;4.624;2022-07-30T12:37:20;75641.28;;;-142.75;71.39
41632;BME280;37452;51.938;4.624;2022-07-30T12:39:47;75653.09;;;-142.75;71.50
41632;BME280;37452;51.938;4.624;2022-07-30T12:42:16;75657.03;;;-142.75;73.40
41632;BME280;37452;51.938;4.624;2022-07-30T12:44:42;75651.13;;;-142.75;74.54
41632;BME280;37452;51.938;4.624;2022-07-30T12:47:23;75662.94;;;-142.75;73.81
41632;BME280;37452;51.938;4.624;2022-07-30T12:49:49;75655.06;;;-142.75;72.81
41632;BME280;37452;51.938;4.624;2022-07-30T12:52:21;75647.19;;;-142.75;72.19
41632;BME280;37452;51.938;4.624;2022-07-30T12:55:01;75651.13;;;-142.75;66.79